createdAt,value
2022-11-04T00:13:55.293Z,4.77
2022-11-04T00:28:59.648Z,5.30
2022-11-04T00:44:05.798Z,4.53
2022-11-04T00:59:13.443Z,4.20
2022-11-04T01:14:19.332Z,5.17
2022-11-04T01:29:23.702Z,4.37
2022-11-04T01:44:51.286Z,3.93
2022-11-04T01:59:58.070Z,2.97
2022-11-04T02:15:04.002Z,3.40
2022-11-04T02:30:11.965Z,3.40
2022-11-04T02:45:21.006Z,3.03
2022-11-04T03:00:26.011Z,3.73
2022-11-04T03:15:33.660Z,3.37
2022-11-04T03:30:43.632Z,2.40
2022-11-04T03:45:48.091Z,3.00
2022-11-04T04:01:01.400Z,2.57
2022-11-04T04:16:10.093Z,1.93
2022-11-04T04:31:37.299Z,2.37
2022-11-04T04:46:44.444Z,2.23
2022-11-04T05:01:48.909Z,1.90
2022-11-04T05:16:53.350Z,3.07
2022-11-04T05:31:58.265Z,2.57
2022-11-04T05:47:02.619Z,1.77
2022-11-04T06:32:19.115Z,2.70
2022-11-04T06:47:24.887Z,2.60
2022-11-04T07:02:29.677Z,3.00
2022-11-04T07:17:34.176Z,2.87
2022-11-04T07:32:38.558Z,4.43
2022-11-04T07:47:42.888Z,3.13
2022-11-04T08:02:47.637Z,3.70
2022-11-04T08:17:52.006Z,2.83
2022-11-04T08:32:56.412Z,3.07
2022-11-04T08:48:05.294Z,1.77
2022-11-04T09:03:10.433Z,2.83
2022-11-04T09:18:14.967Z,2.37
2022-11-04T09:48:28.892Z,3.27
2022-11-04T10:03:56.098Z,2.30
2022-11-04T10:19:17.854Z,3.10
2022-11-04T10:34:32.336Z,2.37
2022-11-04T10:50:28.257Z,2.83
2022-11-04T11:05:34.041Z,2.30
2022-11-04T11:20:39.976Z,2.20
2022-11-04T11:35:51.428Z,2.13
2022-11-04T11:50:58.741Z,1.73
2022-11-04T12:21:33.417Z,2.97
2022-11-04T12:36:53.009Z,2.57
2022-11-04T12:52:06.719Z,3.00
2022-11-04T13:07:16.794Z,1.53
2022-11-04T13:22:26.314Z,6.07
2022-11-04T13:37:34.803Z,1.80
2022-11-04T13:52:52.498Z,2.20
2022-11-04T14:08:13.345Z,1.93
2022-11-04T14:23:24.591Z,2.07
2022-11-04T14:38:31.228Z,2.10
2022-11-04T14:53:39.066Z,1.87
2022-11-04T15:08:46.783Z,2.30
2022-11-04T15:23:53.643Z,1.43
2022-11-04T15:38:59.800Z,1.90
2022-11-04T15:54:07.120Z,1.83
2022-11-04T16:09:23.075Z,1.93
2022-11-04T16:24:30.623Z,2.93
2022-11-04T16:39:35.007Z,2.90
2022-11-04T17:09:43.905Z,3.20
2022-11-04T17:24:48.320Z,3.70
2022-11-04T17:39:52.712Z,4.23
2022-11-04T17:54:57.069Z,4.97
2022-11-04T18:10:01.782Z,5.40
2022-11-04T18:25:07.445Z,6.13
2022-11-04T18:40:12.872Z,4.60
2022-11-04T18:55:17.430Z,4.93
2022-11-04T19:10:21.766Z,5.27
2022-11-04T19:25:26.117Z,6.00
2022-11-04T19:40:30.448Z,6.47
2022-11-04T19:55:35.402Z,5.67
2022-11-04T20:10:41.723Z,5.13
2022-11-04T20:25:46.301Z,5.90
2022-11-04T20:40:50.734Z,7.80
2022-11-04T20:55:55.064Z,5.40
2022-11-04T21:11:00.633Z,5.93
2022-11-04T21:26:09.423Z,6.73
2022-11-04T21:41:15.782Z,6.67
2022-11-04T21:56:23.095Z,5.80
2022-11-04T22:11:29.861Z,5.70
2022-11-04T22:26:34.310Z,7.00
2022-11-04T22:41:38.810Z,8.40
2022-11-04T22:56:43.188Z,7.80
2022-11-04T23:27:09.400Z,7.27
2022-11-04T23:42:18.830Z,6.77
2022-11-04T23:57:41.533Z,8.00
